sensor_id;sensor_type;location;lat;lon;timestamp;P1;P2;P0
77516;PMS7003;68414;53.946;27.634;2023-12-07T00:00:56;27.916666;24.266666;14.566667
77516;PMS7003;68414;53.946;27.634;2023-12-07T00:01:56;33.200001;29.600000;16.733334
77516;PMS7003;68414;53.946;27.634;2023-12-07T00:02:56;32.166668;24.183332;16.299999
77516;PMS7003;68414;53.946;27.634;2023-12-07T00:03:56;32.616665;30.016666;16.066668
77516;PMS7003;68414;53.946;27.634;2023-12-07T00:04:56;34.650002;28.316668;16.600000
77516;PMS7003;68414;53.946;27.634;2023-12-07T00:05:56;33.900002;29.450001;16.500000
77516;PMS7003;68414;53.946;27.634;2023-12-07T00:06:56;32.433334;28.316668;15.366667
77516;PMS7003;68414;53.946;27.634;2023-12-07T00:07:56;31.266666;27.116667;14.883333
77516;PMS7003;68414;53.946;27.634;2023-12-07T00:08:56;31.750000;28.533333;15.433333
77516;PMS7003;68414;53.946;27.634;2023-12-07T00:09:56;29.966667;27.500000;16.883333
77516;PMS7003;68414;53.946;27.634;2023-12-07T00:10:56;31.583334;28.766666;16.683332
77516;PMS7003;68414;53.946;27.634;2023-12-07T00:11:56;30.850000;27.383333;16.533333
77516;PMS7003;68414;53.946;27.634;2023-12-07T00:12:56;29.299999;24.850000;15.116667
77516;PMS7003;68414;53.946;27.634;2023-12-07T00:13:56;33.233334;27.766666;15.083333
77516;PMS7003;68414;53.946;27.634;2023-12-07T00:14:56;34.250000;29.583334;16.000000
77516;PMS7003;68414;53.946;27.634;2023-12-07T00:15:56;30.333334;27.366667;15.250000
77516;PMS7003;68414;53.946;27.634;2023-12-07T00:16:56;33.116665;29.583334;16.549999
77516;PMS7003;68414;53.946;27.634;2023-12-07T00:17:56;32.099998;28.750000;15.833333
77516;PMS7003;68414;53.946;27.634;2023-12-07T00:18:56;31.116667;27.650000;15.766666
77516;PMS7003;68414;53.946;27.634;2023-12-07T00:19:56;29.716667;26.350000;15.133333
77516;PMS7003;68414;53.946;27.634;2023-12-07T00:20:56;27.450001;24.883333;16.116667
77516;PMS7003;68414;53.946;27.634;2023-12-07T00:21:56;30.133333;27.416666;15.866667
77516;PMS7003;68414;53.946;27.634;2023-12-07T00:22:56;30.183332;27.766666;15.900000
77516;PMS7003;68414;53.946;27.634;2023-12-07T00:23:56;28.766666;25.900000;15.883333
77516;PMS7003;68414;53.946;27.634;2023-12-07T00:24:56;25.333334;22.433332;15.516666
77516;PMS7003;68414;53.946;27.634;2023-12-07T00:25:56;29.433332;27.183332;16.200001
77516;PMS7003;68414;53.946;27.634;2023-12-07T00:26:56;28.166666;26.450001;15.716666
77516;PMS7003;68414;53.946;27.634;2023-12-07T00:27:56;28.216667;25.766666;15.733334
77516;PMS7003;68414;53.946;27.634;2023-12-07T00:28:56;32.433334;28.466667;15.933333
77516;PMS7003;68414;53.946;27.634;2023-12-07T00:29:56;30.816668;28.299999;16.549999
77516;PMS7003;68414;53.946;27.634;2023-12-07T00:30:56;28.350000;25.799999;15.366667
77516;PMS7003;68414;53.946;27.634;2023-12-07T00:31:56;26.166666;25.233334;15.650000
77516;PMS7003;68414;53.946;27.634;2023-12-07T00:32:56;32.349998;27.350000;15.433333
77516;PMS7003;68414;53.946;27.634;2023-12-07T00:33:56;33.549999;28.100000;16.316668
77516;PMS7003;68414;53.946;27.634;2023-12-07T00:34:56;29.900000;26.833334;15.666667
77516;PMS7003;68414;53.946;27.634;2023-12-07T00:35:56;32.783333;27.733334;16.516666
77516;PMS7003;68414;53.946;27.634;2023-12-07T00:36:56;32.466667;28.666666;15.283334
77516;PMS7003;68414;53.946;27.634;2023-12-07T00:37:56;29.916666;25.316668;14.650000
77516;PMS7003;68414;53.946;27.634;2023-12-07T00:38:56;28.166666;25.650000;15.566667
77516;PMS7003;68414;53.946;27.634;2023-12-07T00:39:56;27.700001;25.100000;15.816667
77516;PMS7003;68414;53.946;27.634;2023-12-07T00:40:56;31.266666;26.533333;16.083334
77516;PMS7003;68414;53.946;27.634;2023-12-07T00:41:56;28.500000;26.650000;16.650000
77516;PMS7003;68414;53.946;27.634;2023-12-07T00:42:57;29.450001;25.266666;15.883333
77516;PMS7003;68414;53.946;27.634;2023-12-07T00:43:56;32.183334;29.533333;15.300000
77516;PMS7003;68414;53.946;27.634;2023-12-07T00:44:56;29.783333;25.250000;16.016666
77516;PMS7003;68414;53.946;27.634;2023-12-07T00:45:56;32.400002;28.083334;16.049999
77516;PMS7003;68414;53.946;27.634;2023-12-07T00:46:56;30.883333;26.933332;15.033334
77516;PMS7003;68414;53.946;27.634;2023-12-07T00:47:56;30.966667;28.100000;16.233334
77516;PMS7003;68414;53.946;27.634;2023-12-07T00:48:56;32.650002;27.549999;16.033333
77516;PMS7003;68414;53.946;27.634;2023-12-07T00:49:56;26.533333;24.650000;13.783334
77516;PMS7003;68414;53.946;27.634;2023-12-07T00:50:56;30.433332;26.166666;14.866667
77516;PMS7003;68414;53.946;27.634;2023-12-07T00:51:56;27.483334;24.716667;16.283333
77516;PMS7003;68414;53.946;27.634;2023-12-07T00:52:56;25.866667;23.666666;14.683333
77516;PMS7003;68414;53.946;27.634;2023-12-07T00:53:56;31.100000;27.100000;15.400000
77516;PMS7003;68414;53.946;27.634;2023-12-07T00:54:56;33.116665;28.016666;16.266666
77516;PMS7003;68414;53.946;27.634;2023-12-07T00:55:56;27.083334;24.683332;15.033334
77516;PMS7003;68414;53.946;27.634;2023-12-07T00:56:56;28.616667;24.900000;15.100000
77516;PMS7003;68414;53.946;27.634;2023-12-07T00:57:56;26.000000;23.600000;14.700000
77516;PMS7003;68414;53.946;27.634;2023-12-07T00:58:56;30.816668;28.133333;15.150000
77516;PMS7003;68414;53.946;27.634;2023-12-07T00:59:56;31.033333;26.950001;15.283334
77516;PMS7003;68414;53.946;27.634;2023-12-07T01:00:56;30.400000;27.600000;16.466667
77516;PMS7003;68414;53.946;27.634;2023-12-07T01:01:56;27.216667;24.883333;15.050000
77516;PMS7003;68414;53.946;27.634;2023-12-07T01:02:56;28.616667;25.083334;14.933333
77516;PMS7003;68414;53.946;27.634;2023-12-07T01:03:56;27.566668;25.299999;14.433333
77516;PMS7003;68414;53.946;27.634;2023-12-07T01:04:56;27.650000;26.600000;15.433333
77516;PMS7003;68414;53.946;27.634;2023-12-07T01:05:56;29.366667;26.183332;15.283334
77516;PMS7003;68414;53.946;27.634;2023-12-07T01:06:56;27.566668;24.100000;14.300000
77516;PMS7003;68414;53.946;27.634;2023-12-07T01:07:56;28.633333;25.766666;15.133333
77516;PMS7003;68414;53.946;27.634;2023-12-07T01:08:56;27.650000;22.833334;14.200000
77516;PMS7003;68414;53.946;27.634;2023-12-07T01:09:56;28.016666;26.233334;14.700000
77516;PMS7003;68414;53.946;27.634;2023-12-07T01:10:56;28.183332;23.650000;15.483334
77516;PMS7003;68414;53.946;27.634;2023-12-07T01:11:56;29.933332;24.299999;13.933333
77516;PMS7003;68414;53.946;27.634;2023-12-07T01:12:56;29.200001;25.266666;14.283334
77516;PMS7003;68414;53.946;27.634;2023-12-07T01:13:56;27.900000;24.616667;14.850000
77516;PMS7003;68414;53.946;27.634;2023-12-07T01:14:56;26.950001;23.850000;14.883333
77516;PMS7003;68414;53.946;27.634;2023-12-07T01:15:56;28.733334;23.733334;14.766666
77516;PMS7003;68414;53.946;27.634;2023-12-07T01:16:56;30.850000;26.116667;14.550000
77516;PMS7003;68414;53.946;27.634;2023-12-07T01:17:56;25.383333;22.950001;12.850000
77516;PMS7003;68414;53.946;27.634;2023-12-07T01:18:56;28.933332;26.150000;14.283334
77516;PMS7003;68414;53.946;27.634;2023-12-07T01:19:56;30.316668;27.716667;14.883333
77516;PMS7003;68414;53.946;27.634;2023-12-07T01:20:56;28.966667;25.250000;14.633333
77516;PMS7003;68414;53.946;27.634;2023-12-07T01:21:56;26.116667;25.033333;14.300000
77516;PMS7003;68414;53.946;27.634;2023-12-07T01:22:56;25.799999;24.633333;14.716666
77516;PMS7003;68414;53.946;27.634;2023-12-07T01:23:56;27.466667;24.400000;14.466666
77516;PMS7003;68414;53.946;27.634;2023-12-07T01:24:56;29.400000;24.666666;14.283334
77516;PMS7003;68414;53.946;27.634;2023-12-07T01:25:56;28.900000;25.533333;13.883333
77516;PMS7003;68414;53.946;27.634;2023-12-07T01:26:56;24.833334;23.066668;14.533334
77516;PMS7003;68414;53.946;27.634;2023-12-07T01:27:56;31.216667;26.483334;14.633333
77516;PMS7003;68414;53.946;27.634;2023-12-07T01:28:56;28.666666;25.616667;14.950000
77516;PMS7003;68414;53.946;27.634;2023-12-07T01:29:56;30.266666;25.983334;14.616667
77516;PMS7003;68414;53.946;27.634;2023-12-07T01:30:56;30.516666;27.233334;12.833333
77516;PMS7003;68414;53.946;27.634;2023-12-07T01:31:56;28.016666;25.166666;14.116667
77516;PMS7003;68414;53.946;27.634;2023-12-07T01:32:56;27.950001;25.016666;14.050000
77516;PMS7003;68414;53.946;27.634;2023-12-07T01:33:56;28.000000;24.799999;14.516666
77516;PMS7003;68414;53.946;27.634;2023-12-07T01:34:56;31.566668;25.250000;14.850000
77516;PMS7003;68414;53.946;27.634;2023-12-07T01:35:56;27.150000;23.900000;13.533334
77516;PMS7003;68414;53.946;27.634;2023-12-07T01:36:56;30.100000;25.633333;13.783334
77516;PMS7003;68414;53.946;27.634;2023-12-07T01:37:56;27.083334;22.666666;14.083333
77516;PMS7003;68414;53.946;27.634;2023-12-07T01:38:56;26.333334;23.933332;13.483334
77516;PMS7003;68414;53.946;27.634;2023-12-07T01:39:56;22.933332;20.549999;13.566667
77516;PMS7003;68414;53.946;27.634;2023-12-07T01:40:56;26.100000;22.166666;13.733334
77516;PMS7003;68414;53.946;27.634;2023-12-07T01:41:56;26.866667;24.533333;14.300000
77516;PMS7003;68414;53.946;27.634;2023-12-07T01:42:56;25.200001;24.116667;14.450000
77516;PMS7003;68414;53.946;27.634;2023-12-07T01:43:56;28.833334;24.383333;14.200000
77516;PMS7003;68414;53.946;27.634;2023-12-07T01:44:56;25.566668;21.450001;13.683333
77516;PMS7003;68414;53.946;27.634;2023-12-07T01:45:57;28.683332;24.583334;13.100000
77516;PMS7003;68414;53.946;27.634;2023-12-07T01:46:56;27.950001;24.833334;14.083333
77516;PMS7003;68414;53.946;27.634;2023-12-07T01:47:56;27.733334;24.250000;14.466666
77516;PMS7003;68414;53.946;27.634;2023-12-07T01:48:56;28.250000;25.983334;14.450000
77516;PMS7003;68414;53.946;27.634;2023-12-07T01:49:56;28.150000;24.583334;13.233334
77516;PMS7003;68414;53.946;27.634;2023-12-07T01:50:57;29.116667;25.350000;15.000000
77516;PMS7003;68414;53.946;27.634;2023-12-07T01:51:56;25.916666;22.466667;14.850000
77516;PMS7003;68414;53.946;27.634;2023-12-07T01:52:59;27.533333;24.000000;13.900000
77516;PMS7003;68414;53.946;27.634;2023-12-07T01:53:56;26.983334;24.450001;13.450000
77516;PMS7003;68414;53.946;27.634;2023-12-07T01:54:57;25.483334;22.683332;12.766666
77516;PMS7003;68414;53.946;27.634;2023-12-07T01:55:56;28.383333;25.650000;14.383333
77516;PMS7003;68414;53.946;27.634;2023-12-07T01:56:56;24.783333;22.350000;13.933333
77516;PMS7003;68414;53.946;27.634;2023-12-07T01:57:56;28.266666;25.516666;14.433333
77516;PMS7003;68414;53.946;27.634;2023-12-07T01:58:56;28.816668;26.350000;14.316667
77516;PMS7003;68414;53.946;27.634;2023-12-07T01:59:56;22.866667;20.983334;13.916667
77516;PMS7003;68414;53.946;27.634;2023-12-07T02:00:56;25.750000;23.733334;14.116667
77516;PMS7003;68414;53.946;27.634;2023-12-07T02:01:56;28.750000;25.083334;13.333333
77516;PMS7003;68414;53.946;27.634;2023-12-07T02:02:56;24.366667;22.083334;14.066667
77516;PMS7003;68414;53.946;27.634;2023-12-07T02:03:56;28.900000;21.933332;14.316667
77516;PMS7003;68414;53.946;27.634;2023-12-07T02:04:56;29.916666;25.016666;15.183333
77516;PMS7003;68414;53.946;27.634;2023-12-07T02:05:57;26.883333;22.083334;13.683333
77516;PMS7003;68414;53.946;27.634;2023-12-07T02:06:57;28.616667;25.700001;14.833333
77516;PMS7003;68414;53.946;27.634;2023-12-07T02:07:56;24.500000;22.066668;12.816667
77516;PMS7003;68414;53.946;27.634;2023-12-07T02:08:56;30.083334;24.816668;15.533334
77516;PMS7003;68414;53.946;27.634;2023-12-07T02:09:57;25.266666;22.250000;13.166667
77516;PMS7003;68414;53.946;27.634;2023-12-07T02:10:56;25.900000;22.566668;13.833333
77516;PMS7003;68414;53.946;27.634;2023-12-07T02:11:56;25.816668;22.049999;13.250000
77516;PMS7003;68414;53.946;27.634;2023-12-07T02:12:56;24.816668;23.166666;14.216666
77516;PMS7003;68414;53.946;27.634;2023-12-07T02:13:56;23.683332;22.816668;14.216666
77516;PMS7003;68414;53.946;27.634;2023-12-07T02:14:56;24.549999;22.183332;13.183333
77516;PMS7003;68414;53.946;27.634;2023-12-07T02:15:58;25.850000;23.966667;13.883333
77516;PMS7003;68414;53.946;27.634;2023-12-07T02:17:01;25.066668;22.266666;14.000000
77516;PMS7003;68414;53.946;27.634;2023-12-07T02:23:58;28.033333;23.333334;13.583333
77516;PMS7003;68414;53.946;27.634;2023-12-07T02:25:03;28.133333;26.516666;14.516666
77516;PMS7003;68414;53.946;27.634;2023-12-07T02:26:56;28.333334;25.383333;13.833333
77516;PMS7003;68414;53.946;27.634;2023-12-07T02:27:56;26.833334;23.466667;13.833333
77516;PMS7003;68414;53.946;27.634;2023-12-07T02:28:56;27.450001;23.299999;13.650000
77516;PMS7003;68414;53.946;27.634;2023-12-07T02:29:56;26.866667;22.616667;13.066667
77516;PMS7003;68414;53.946;27.634;2023-12-07T02:30:56;29.049999;24.683332;14.533334
77516;PMS7003;68414;53.946;27.634;2023-12-07T02:31:56;29.950001;25.950001;13.833333
77516;PMS7003;68414;53.946;27.634;2023-12-07T02:32:56;27.066668;23.766666;13.800000
77516;PMS7003;68414;53.946;27.634;2023-12-07T02:33:56;29.733334;23.799999;13.266666
77516;PMS7003;68414;53.946;27.634;2023-12-07T02:34:56;25.666666;22.700001;12.900000
77516;PMS7003;68414;53.946;27.634;2023-12-07T02:35:56;29.299999;25.700001;13.950000
77516;PMS7003;68414;53.946;27.634;2023-12-07T02:36:58;30.500000;24.583334;14.450000
77516;PMS7003;68414;53.946;27.634;2023-12-07T02:37:56;30.933332;25.333334;13.750000
77516;PMS7003;68414;53.946;27.634;2023-12-07T02:38:58;26.616667;24.100000;13.650000
77516;PMS7003;68414;53.946;27.634;2023-12-07T02:39:56;25.549999;21.633333;13.900000
77516;PMS7003;68414;53.946;27.634;2023-12-07T02:40:57;24.733334;23.216667;13.866667
77516;PMS7003;68414;53.946;27.634;2023-12-07T02:41:57;24.666666;23.750000;14.250000
77516;PMS7003;68414;53.946;27.634;2023-12-07T02:42:57;27.916666;25.233334;14.283334
77516;PMS7003;68414;53.946;27.634;2023-12-07T02:43:56;23.983334;19.583334;13.150000
77516;PMS7003;68414;53.946;27.634;2023-12-07T02:44:56;28.983334;25.833334;14.283334
77516;PMS7003;68414;53.946;27.634;2023-12-07T02:45:56;27.049999;25.916666;14.850000
77516;PMS7003;68414;53.946;27.634;2023-12-07T02:46:58;29.116667;25.799999;14.683333
77516;PMS7003;68414;53.946;27.634;2023-12-07T02:47:57;26.883333;24.766666;14.616667
77516;PMS7003;68414;53.946;27.634;2023-12-07T02:48:57;28.233334;25.400000;14.066667
77516;PMS7003;68414;53.946;27.634;2023-12-07T02:49:56;28.266666;23.850000;15.166667
77516;PMS7003;68414;53.946;27.634;2023-12-07T02:50:56;27.466667;25.616667;14.366667
77516;PMS7003;68414;53.946;27.634;2023-12-07T02:51:56;28.683332;25.750000;14.750000
77516;PMS7003;68414;53.946;27.634;2023-12-07T02:52:56;28.666666;24.700001;13.900000
77516;PMS7003;68414;53.946;27.634;2023-12-07T02:53:56;29.033333;23.666666;15.683333
77516;PMS7003;68414;53.946;27.634;2023-12-07T02:54:56;26.850000;23.266666;14.733334
77516;PMS7003;68414;53.946;27.634;2023-12-07T02:55:56;29.150000;26.049999;15.016666
77516;PMS7003;68414;53.946;27.634;2023-12-07T02:56:56;29.633333;25.933332;14.866667
77516;PMS7003;68414;53.946;27.634;2023-12-07T02:57:56;29.316668;23.866667;14.433333
77516;PMS7003;68414;53.946;27.634;2023-12-07T02:58:56;31.116667;27.100000;14.400000
77516;PMS7003;68414;53.946;27.634;2023-12-07T02:59:56;27.733334;26.166666;15.850000
77516;PMS7003;68414;53.946;27.634;2023-12-07T03:00:56;31.549999;27.650000;15.916667
77516;PMS7003;68414;53.946;27.634;2023-12-07T03:01:56;26.916666;23.533333;14.816667
77516;PMS7003;68414;53.946;27.634;2023-12-07T03:02:56;32.066666;27.416666;14.550000
77516;PMS7003;68414;53.946;27.634;2023-12-07T03:03:56;30.049999;24.866667;13.650000
77516;PMS7003;68414;53.946;27.634;2023-12-07T03:04:56;26.600000;24.033333;14.583333
77516;PMS7003;68414;53.946;27.634;2023-12-07T03:05:56;30.350000;26.766666;14.416667
77516;PMS7003;68414;53.946;27.634;2023-12-07T03:06:56;31.700001;26.750000;14.816667
77516;PMS7003;68414;53.946;27.634;2023-12-07T03:07:56;31.466667;27.983334;15.483334
77516;PMS7003;68414;53.946;27.634;2023-12-07T03:08:56;30.666666;28.483334;14.233334
77516;PMS7003;68414;53.946;27.634;2023-12-07T03:09:56;28.733334;25.766666;15.850000
77516;PMS7003;68414;53.946;27.634;2023-12-07T03:10:56;26.666666;22.799999;15.116667
77516;PMS7003;68414;53.946;27.634;2023-12-07T03:11:56;27.866667;25.283333;15.050000
77516;PMS7003;68414;53.946;27.634;2023-12-07T03:12:56;30.616667;26.200001;14.950000
77516;PMS7003;68414;53.946;27.634;2023-12-07T03:13:56;33.983334;27.483334;14.633333
77516;PMS7003;68414;53.946;27.634;2023-12-07T03:14:56;32.049999;26.700001;15.316667
77516;PMS7003;68414;53.946;27.634;2023-12-07T03:15:56;31.700001;26.783333;14.133333
77516;PMS7003;68414;53.946;27.634;2023-12-07T03:16:56;32.433334;28.950001;15.683333
77516;PMS7003;68414;53.946;27.634;2023-12-07T03:17:56;26.866667;24.566668;14.650000
77516;PMS7003;68414;53.946;27.634;2023-12-07T03:18:56;28.200001;26.150000;15.900000
77516;PMS7003;68414;53.946;27.634;2023-12-07T03:19:56;32.549999;29.500000;15.816667
77516;PMS7003;68414;53.946;27.634;2023-12-07T03:20:56;30.400000;28.016666;15.000000
77516;PMS7003;68414;53.946;27.634;2023-12-07T03:21:56;31.333334;28.650000;16.333334
77516;PMS7003;68414;53.946;27.634;2023-12-07T03:22:56;31.416666;27.583334;15.700000
77516;PMS7003;68414;53.946;27.634;2023-12-07T03:23:56;26.883333;23.750000;14.966666
77516;PMS7003;68414;53.946;27.634;2023-12-07T03:24:56;31.850000;28.183332;16.383333
77516;PMS7003;68414;53.946;27.634;2023-12-07T03:25:56;29.316668;26.549999;15.783334
77516;PMS7003;68414;53.946;27.634;2023-12-07T03:26:56;26.866667;23.766666;13.200000
77516;PMS7003;68414;53.946;27.634;2023-12-07T03:27:56;29.150000;26.799999;16.066668
77516;PMS7003;68414;53.946;27.634;2023-12-07T03:28:56;26.083334;23.283333;14.933333
77516;PMS7003;68414;53.946;27.634;2023-12-07T03:29:56;31.733334;26.583334;15.100000
77516;PMS7003;68414;53.946;27.634;2023-12-07T03:30:56;27.266666;24.566668;14.550000
77516;PMS7003;68414;53.946;27.634;2023-12-07T03:31:56;31.250000;26.299999;17.016666
77516;PMS7003;68414;53.946;27.634;2023-12-07T03:32:56;31.733334;28.250000;15.333333
77516;PMS7003;68414;53.946;27.634;2023-12-07T03:33:56;33.783333;27.850000;14.450000
77516;PMS7003;68414;53.946;27.634;2023-12-07T03:34:56;28.916666;26.549999;14.850000
77516;PMS7003;68414;53.946;27.634;2023-12-07T03:35:56;27.083334;23.966667;14.950000
77516;PMS7003;68414;53.946;27.634;2023-12-07T03:36:56;30.150000;27.299999;14.666667
77516;PMS7003;68414;53.946;27.634;2023-12-07T03:37:56;32.733334;28.900000;15.433333
77516;PMS7003;68414;53.946;27.634;2023-12-07T03:38:56;28.166666;24.416666;15.683333
77516;PMS7003;68414;53.946;27.634;2023-12-07T03:39:56;34.216667;27.966667;16.383333
77516;PMS7003;68414;53.946;27.634;2023-12-07T03:40:56;29.483334;25.116667;14.450000
77516;PMS7003;68414;53.946;27.634;2023-12-07T03:41:56;29.950001;26.433332;14.900000
77516;PMS7003;68414;53.946;27.634;2023-12-07T03:42:56;33.066666;26.716667;14.700000
77516;PMS7003;68414;53.946;27.634;2023-12-07T03:43:56;29.716667;26.350000;16.233334
77516;PMS7003;68414;53.946;27.634;2023-12-07T03:44:56;28.600000;25.516666;15.483334
77516;PMS7003;68414;53.946;27.634;2023-12-07T03:45:56;31.100000;26.016666;15.866667
77516;PMS7003;68414;53.946;27.634;2023-12-07T03:46:56;30.600000;27.016666;16.100000
77516;PMS7003;68414;53.946;27.634;2023-12-07T03:47:56;33.450001;27.850000;17.116667
77516;PMS7003;68414;53.946;27.634;2023-12-07T03:48:56;32.333332;29.500000;15.200000
77516;PMS7003;68414;53.946;27.634;2023-12-07T03:49:56;32.916668;28.283333;15.900000
77516;PMS7003;68414;53.946;27.634;2023-12-07T03:50:56;35.299999;28.549999;15.050000
77516;PMS7003;68414;53.946;27.634;2023-12-07T03:51:56;30.783333;26.716667;14.483334
77516;PMS7003;68414;53.946;27.634;2023-12-07T03:52:56;27.983334;25.783333;16.016666
77516;PMS7003;68414;53.946;27.634;2023-12-07T03:53:56;34.000000;29.366667;16.833334
77516;PMS7003;68414;53.946;27.634;2023-12-07T03:54:56;36.016666;29.633333;15.983334
77516;PMS7003;68414;53.946;27.634;2023-12-07T03:55:56;34.299999;30.750000;16.883333
77516;PMS7003;68414;53.946;27.634;2023-12-07T03:56:56;34.333332;30.850000;16.716667
77516;PMS7003;68414;53.946;27.634;2023-12-07T03:57:56;31.816668;27.066668;14.450000
77516;PMS7003;68414;53.946;27.634;2023-12-07T03:58:56;31.266666;28.966667;16.400000
77516;PMS7003;68414;53.946;27.634;2023-12-07T03:59:56;32.150002;29.100000;15.266666
77516;PMS7003;68414;53.946;27.634;2023-12-07T04:00:56;37.500000;29.033333;16.916666
77516;PMS7003;68414;53.946;27.634;2023-12-07T04:01:56;33.450001;29.250000;15.116667
77516;PMS7003;68414;53.946;27.634;2023-12-07T04:02:56;32.666668;27.049999;15.683333
77516;PMS7003;68414;53.946;27.634;2023-12-07T04:03:56;28.700001;26.333334;15.716666
77516;PMS7003;68414;53.946;27.634;2023-12-07T04:04:56;30.250000;24.716667;14.283334
77516;PMS7003;68414;53.946;27.634;2023-12-07T04:05:56;33.033333;27.383333;15.966666
77516;PMS7003;68414;53.946;27.634;2023-12-07T04:06:56;34.733334;29.716667;15.950000
77516;PMS7003;68414;53.946;27.634;2023-12-07T04:07:56;31.150000;27.100000;15.966666
77516;PMS7003;68414;53.946;27.634;2023-12-07T04:08:56;31.583334;28.233334;16.333334
77516;PMS7003;68414;53.946;27.634;2023-12-07T04:09:56;30.766666;27.450001;15.500000
77516;PMS7003;68414;53.946;27.634;2023-12-07T04:10:56;32.799999;30.083334;15.483334
77516;PMS7003;68414;53.946;27.634;2023-12-07T04:11:56;30.400000;26.216667;15.266666
77516;PMS7003;68414;53.946;27.634;2023-12-07T04:12:56;34.566666;29.316668;16.533333
77516;PMS7003;68414;53.946;27.634;2023-12-07T04:13:56;32.450001;27.916666;16.033333
77516;PMS7003;68414;53.946;27.634;2023-12-07T04:14:56;30.866667;28.450001;15.166667
77516;PMS7003;68414;53.946;27.634;2023-12-07T04:15:56;30.799999;27.433332;16.450001
77516;PMS7003;68414;53.946;27.634;2023-12-07T04:16:56;30.799999;27.883333;15.783334
77516;PMS7003;68414;53.946;27.634;2023-12-07T04:17:56;30.533333;26.683332;14.683333
77516;PMS7003;68414;53.946;27.634;2023-12-07T04:18:56;33.599998;29.766666;16.266666
77516;PMS7003;68414;53.946;27.634;2023-12-07T04:19:56;33.700001;29.016666;15.883333
77516;PMS7003;68414;53.946;27.634;2023-12-07T04:20:56;33.349998;28.366667;16.316668
77516;PMS7003;68414;53.946;27.634;2023-12-07T04:21:56;32.400002;27.900000;16.549999
77516;PMS7003;68414;53.946;27.634;2023-12-07T04:22:56;34.766666;29.633333;15.983334
77516;PMS7003;68414;53.946;27.634;2023-12-07T04:23:56;32.616665;29.850000;16.983334
77516;PMS7003;68414;53.946;27.634;2023-12-07T04:24:56;37.933334;31.966667;18.366667
77516;PMS7003;68414;53.946;27.634;2023-12-07T04:25:56;35.683334;31.000000;17.816668
77516;PMS7003;68414;53.946;27.634;2023-12-07T04:26:56;38.233334;30.533333;15.766666
77516;PMS7003;68414;53.946;27.634;2023-12-07T04:27:56;35.133335;30.366667;17.183332
77516;PMS7003;68414;53.946;27.634;2023-12-07T04:28:56;34.633335;30.783333;17.799999
77516;PMS7003;68414;53.946;27.634;2023-12-07T04:29:56;38.816666;32.250000;17.166666
77516;PMS7003;68414;53.946;27.634;2023-12-07T04:30:56;34.166668;31.166666;15.900000
77516;PMS7003;68414;53.946;27.634;2023-12-07T04:31:56;33.016666;30.433332;16.233334
77516;PMS7003;68414;53.946;27.634;2023-12-07T04:32:56;38.316666;33.383335;16.716667
77516;PMS7003;68414;53.946;27.634;2023-12-07T04:33:56;35.549999;31.116667;18.016666
77516;PMS7003;68414;53.946;27.634;2023-12-07T04:34:56;39.650002;35.349998;17.666666
77516;PMS7003;68414;53.946;27.634;2023-12-07T04:35:56;33.200001;30.049999;17.066668
77516;PMS7003;68414;53.946;27.634;2023-12-07T04:36:56;36.900002;33.650002;17.283333
77516;PMS7003;68414;53.946;27.634;2023-12-07T04:37:56;36.716667;30.783333;18.083334
77516;PMS7003;68414;53.946;27.634;2023-12-07T04:38:56;37.049999;31.799999;18.250000
77516;PMS7003;68414;53.946;27.634;2023-12-07T04:39:56;37.283333;31.750000;18.233334
77516;PMS7003;68414;53.946;27.634;2023-12-07T04:40:56;37.099998;32.049999;18.166666
77516;PMS7003;68414;53.946;27.634;2023-12-07T04:41:56;35.650002;31.383333;18.616667
77516;PMS7003;68414;53.946;27.634;2023-12-07T04:42:56;35.799999;32.566666;17.983334
77516;PMS7003;68414;53.946;27.634;2023-12-07T04:43:56;34.966667;32.549999;17.983334
77516;PMS7003;68414;53.946;27.634;2023-12-07T04:44:56;38.283333;32.466667;18.183332
77516;PMS7003;68414;53.946;27.634;2023-12-07T04:45:56;37.783333;33.183334;17.966667
77516;PMS7003;68414;53.946;27.634;2023-12-07T04:46:56;33.983334;29.450001;17.049999
77516;PMS7003;68414;53.946;27.634;2023-12-07T04:47:56;37.416668;31.150000;17.683332
77516;PMS7003;68414;53.946;27.634;2023-12-07T04:48:56;38.016666;32.500000;19.366667
77516;PMS7003;68414;53.946;27.634;2023-12-07T04:49:56;37.383335;35.016666;18.850000
77516;PMS7003;68414;53.946;27.634;2023-12-07T04:50:56;39.383335;33.200001;18.600000
77516;PMS7003;68414;53.946;27.634;2023-12-07T04:51:56;35.400002;31.466667;18.733334